Time;durP1;ratioP1;P1;durP2;ratioP2;P2;SDS_P1;SDS_P2;PMS_P1;PMS_P2;Temp;Humidity;BMP_temperature;BMP_pressure;BME280_temperature;BME280_humidity;BME280_pressure;Samples;Min_cycle;Max_cycle;Signal;HPM_P1;HPM_P2
2021/11/23 00:02:24;;;;;;;25.27;19.63;;;5.00;99.90;;;;;;4971477;28;20736;-72
2021/11/23 00:04:52;;;;;;;27.67;19.30;;;5.00;99.90;;;;;;4972267;28;20300;-72
2021/11/23 00:07:19;;;;;;;30.27;21.03;;;5.00;99.90;;;;;;4971658;28;20213;-73
2021/11/23 00:09:46;;;;;;;31.17;21.53;;;5.00;99.90;;;;;;4971985;28;20631;-72
2021/11/23 00:12:13;;;;;;;32.43;20.93;;;4.90;99.90;;;;;;4971612;28;20337;-72
2021/11/23 00:14:40;;;;;;;38.97;25.40;;;5.00;99.90;;;;;;4971976;28;20793;-72
2021/11/23 00:17:07;;;;;;;54.57;33.10;;;4.90;99.90;;;;;;4971383;28;20217;-72
2021/11/23 00:19:35;;;;;;;44.70;29.03;;;4.70;99.90;;;;;;4971833;28;20201;-71
2021/11/23 00:22:02;;;;;;;38.83;27.87;;;4.70;99.90;;;;;;4971875;28;20268;-71
2021/11/23 00:24:29;;;;;;;32.53;21.93;;;4.70;99.90;;;;;;4971435;28;20261;-72
2021/11/23 00:26:57;;;;;;;34.73;22.97;;;4.70;99.90;;;;;;4971878;28;20307;-72
2021/11/23 00:29:23;;;;;;;31.83;23.47;;;4.70;99.90;;;;;;4971010;28;20269;-72
2021/11/23 00:31:51;;;;;;;31.97;20.93;;;4.80;99.90;;;;;;4971526;28;20217;-71
2021/11/23 00:34:18;;;;;;;29.53;24.53;;;4.80;99.90;;;;;;4971452;28;20213;-71
2021/11/23 00:36:47;;;;;;;26.17;20.63;;;4.70;99.90;;;;;;4971409;28;20206;-71
2021/11/23 00:39:14;;;;;;;27.30;20.30;;;4.70;99.90;;;;;;4971491;28;20210;-71
2021/11/23 00:41:47;;;;;;;28.67;20.50;;;4.70;99.90;;;;;;4971720;28;20240;-72
2021/11/23 00:44:14;;;;;;;29.20;20.30;;;4.70;99.90;;;;;;4971219;28;20210;-71
2021/11/23 00:46:42;;;;;;;25.00;18.83;;;4.60;99.90;;;;;;4971090;28;20244;-72
2021/11/23 00:49:09;;;;;;;23.03;18.10;;;4.60;99.90;;;;;;4971900;28;20214;-72
2021/11/23 00:51:36;;;;;;;27.97;19.13;;;4.60;99.90;;;;;;4971489;28;20677;-71
2021/11/23 00:54:04;;;;;;;27.80;19.03;;;4.70;99.90;;;;;;4958112;28;20760;-72
2021/11/23 00:56:31;;;;;;;26.77;19.03;;;4.70;99.90;;;;;;4970985;28;20279;-72
2021/11/23 00:58:58;;;;;;;25.17;20.17;;;4.50;99.90;;;;;;4971233;28;20213;-72
2021/11/23 01:01:26;;;;;;;23.50;18.07;;;4.50;99.90;;;;;;4971305;28;20549;-71
2021/11/23 01:03:53;;;;;;;24.67;18.07;;;4.50;99.90;;;;;;4971202;28;20628;-72
2021/11/23 01:06:21;;;;;;;26.73;19.80;;;4.50;99.90;;;;;;4970866;28;20288;-71
2021/11/23 01:08:49;;;;;;;23.27;19.13;;;4.50;99.90;;;;;;4971360;28;20213;-76
2021/11/23 01:11:19;;;;;;;24.73;18.53;;;4.40;99.90;;;;;;4971107;28;20256;-77
2021/11/23 01:13:48;;;;;;;23.80;18.73;;;4.30;99.90;;;;;;4971143;28;20213;-76
2021/11/23 01:16:16;;;;;;;27.80;19.63;;;4.30;99.90;;;;;;4971292;28;20654;-74
2021/11/23 01:18:45;;;;;;;29.70;20.63;;;4.40;99.90;;;;;;4971413;28;20297;-75
2021/11/23 01:21:14;;;;;;;28.23;21.30;;;4.40;99.90;;;;;;4970575;28;20236;-75
2021/11/23 01:23:42;;;;;;;24.83;19.10;;;4.40;99.90;;;;;;4971287;28;20206;-75
2021/11/23 01:26:09;;;;;;;30.70;21.60;;;4.40;99.90;;;;;;4971237;28;20705;-75
2021/11/23 01:28:39;;;;;;;28.20;20.07;;;4.30;99.90;;;;;;4974384;28;20256;-75
2021/11/23 01:31:06;;;;;;;27.33;20.23;;;4.20;99.90;;;;;;4975295;28;20209;-71
2021/11/23 01:33:33;;;;;;;29.20;22.03;;;4.20;99.90;;;;;;4974305;28;20209;-71
2021/11/23 01:36:01;;;;;;;27.50;19.83;;;4.30;99.90;;;;;;4974673;28;20276;-71
2021/11/23 01:38:28;;;;;;;27.57;20.70;;;4.30;99.90;;;;;;4974228;28;20202;-71
2021/11/23 01:40:55;;;;;;;24.10;20.50;;;4.30;99.90;;;;;;4974358;28;20590;-71
2021/11/23 01:43:23;;;;;;;27.27;21.37;;;4.20;99.90;;;;;;4973911;28;20210;-72
2021/11/23 01:45:51;;;;;;;25.93;20.87;;;4.20;99.90;;;;;;4974355;28;20713;-71
2021/11/23 01:48:19;;;;;;;26.40;20.07;;;4.20;99.90;;;;;;4973948;28;20756;-71
2021/11/23 01:50:46;;;;;;;25.43;20.07;;;4.20;99.90;;;;;;4974382;28;20252;-71
2021/11/23 01:53:13;;;;;;;28.10;19.83;;;4.10;99.90;;;;;;4973957;28;20213;-72
2021/11/23 01:55:41;;;;;;;28.80;21.63;;;4.20;99.90;;;;;;4974066;28;20264;-71
2021/11/23 01:58:10;;;;;;;26.70;18.67;;;4.10;99.90;;;;;;4974805;28;20210;-71
2021/11/23 02:00:37;;;;;;;24.67;19.40;;;4.10;99.90;;;;;;4974540;28;20213;-72
2021/11/23 02:03:06;;;;;;;26.83;18.47;;;4.00;99.90;;;;;;4974125;28;20210;-72
2021/11/23 02:05:33;;;;;;;27.40;19.53;;;4.10;99.90;;;;;;4973341;28;21047;-72
2021/11/23 02:08:01;;;;;;;22.93;17.47;;;4.10;99.90;;;;;;4974559;28;20673;-79
2021/11/23 02:10:28;;;;;;;25.53;16.87;;;4.10;99.90;;;;;;4973363;28;20213;-78
2021/11/23 02:12:56;;;;;;;23.70;18.40;;;4.00;99.90;;;;;;4974190;28;20213;-72
2021/11/23 02:15:23;;;;;;;26.33;18.10;;;4.00;99.90;;;;;;4973630;28;20213;-72
2021/11/23 02:17:51;;;;;;;27.87;18.80;;;4.00;99.90;;;;;;4973791;28;20289;-71
2021/11/23 02:20:21;;;;;;;27.47;23.10;;;4.00;99.90;;;;;;4973842;28;20209;-76
2021/11/23 02:22:50;;;;;;;26.07;20.80;;;4.10;99.90;;;;;;4973513;28;20240;-77
2021/11/23 02:25:18;;;;;;;28.77;19.40;;;4.10;99.90;;;;;;4973198;28;20272;-72
2021/11/23 02:27:46;;;;;;;24.17;19.33;;;4.10;99.90;;;;;;4973749;28;20237;-70
2021/11/23 02:30:13;;;;;;;27.63;20.23;;;4.00;99.90;;;;;;4973077;28;20202;-72
2021/11/23 02:32:43;;;;;;;26.23;18.30;;;4.00;99.90;;;;;;4973897;28;20628;-72
2021/11/23 02:35:12;;;;;;;25.20;18.43;;;3.80;99.90;;;;;;4973880;28;20206;-74
2021/11/23 02:37:45;;;;;;;23.83;18.23;;;3.90;99.90;;;;;;4973908;28;20271;-72
2021/11/23 02:40:13;;;;;;;28.07;17.70;;;3.90;99.90;;;;;;4972332;28;20209;-72
2021/11/23 02:42:40;;;;;;;20.33;17.23;;;3.90;99.90;;;;;;4973303;28;20740;-72
2021/11/23 02:45:08;;;;;;;24.57;17.27;;;3.70;99.90;;;;;;4973672;28;20209;-71
2021/11/23 02:47:37;;;;;;;23.83;18.23;;;3.70;99.90;;;;;;4973582;28;20252;-71
2021/11/23 02:50:05;;;;;;;22.97;17.97;;;3.80;99.90;;;;;;4973445;28;20261;-71
2021/11/23 02:52:32;;;;;;;22.00;16.30;;;3.80;99.90;;;;;;4973031;28;20260;-73
2021/11/23 02:55:03;;;;;;;19.50;15.90;;;3.80;99.90;;;;;;4972951;28;20209;-71
2021/11/23 02:57:32;;;;;;;22.70;17.20;;;3.80;99.90;;;;;;4960090;28;20213;-71
2021/11/23 03:00:00;;;;;;;25.87;18.60;;;3.70;99.90;;;;;;4973438;28;20634;-79
2021/11/23 03:02:27;;;;;;;22.63;17.73;;;3.80;99.90;;;;;;4972488;28;20209;-71
2021/11/23 03:04:54;;;;;;;27.07;21.50;;;3.80;99.90;;;;;;4971281;28;20217;-71
2021/11/23 03:07:22;;;;;;;25.97;18.87;;;3.80;99.90;;;;;;4972488;28;20272;-71
2021/11/23 03:09:50;;;;;;;26.83;21.93;;;3.90;99.90;;;;;;4972804;28;20640;-72
2021/11/23 03:12:20;;;;;;;28.67;21.10;;;4.10;99.90;;;;;;4972596;28;20268;-72
2021/11/23 03:14:48;;;;;;;34.80;24.77;;;4.30;99.90;;;;;;4972881;28;20213;-71
2021/11/23 03:17:17;;;;;;;26.20;20.53;;;4.40;99.90;;;;;;4972400;28;20241;-71
2021/11/23 03:19:45;;;;;;;27.40;20.60;;;4.50;99.90;;;;;;4972682;28;20268;-71
2021/11/23 03:22:13;;;;;;;21.90;17.17;;;4.60;99.90;;;;;;4971951;28;20639;-71
2021/11/23 03:24:41;;;;;;;19.83;15.77;;;4.70;99.90;;;;;;4972695;28;20634;-71
2021/11/23 03:27:09;;;;;;;23.00;17.33;;;4.90;99.90;;;;;;4972616;28;20280;-71
2021/11/23 03:29:38;;;;;;;27.33;18.93;;;5.00;99.90;;;;;;4972906;28;20217;-71
2021/11/23 03:32:07;;;;;;;24.43;18.13;;;4.90;99.90;;;;;;4972290;28;20296;-73
2021/11/23 03:34:37;;;;;;;22.10;18.00;;;4.90;99.90;;;;;;4972448;28;20280;-73
2021/11/23 03:37:05;;;;;;;21.80;16.47;;;4.80;99.90;;;;;;4971798;28;20751;-72
2021/11/23 03:39:32;;;;;;;22.47;17.63;;;4.80;99.90;;;;;;4972421;28;20300;-73
2021/11/23 03:41:59;;;;;;;21.97;17.07;;;4.70;99.90;;;;;;4972275;28;20259;-73
2021/11/23 03:44:26;;;;;;;23.53;17.40;;;4.70;99.90;;;;;;4958604;28;20748;-72
2021/11/23 03:46:54;;;;;;;20.27;16.40;;;4.80;99.90;;;;;;4972080;28;20772;-73
2021/11/23 03:49:21;;;;;;;19.93;16.07;;;5.00;99.90;;;;;;4971579;28;20198;-72
2021/11/23 03:51:48;;;;;;;21.57;17.80;;;5.10;99.90;;;;;;4971105;28;20217;-72
2021/11/23 03:54:16;;;;;;;21.67;16.70;;;4.90;99.90;;;;;;4971514;28;20210;-75
2021/11/23 03:56:43;;;;;;;23.87;17.87;;;4.80;99.90;;;;;;4972484;28;20287;-75
2021/11/23 03:59:10;;;;;;;24.37;18.23;;;4.80;99.90;;;;;;4972461;28;20209;-72
2021/11/23 04:01:37;;;;;;;26.73;20.03;;;4.70;99.90;;;;;;4972585;28;20212;-73
2021/11/23 04:04:06;;;;;;;26.97;18.47;;;4.70;99.90;;;;;;4971843;28;20213;-72
2021/11/23 04:06:33;;;;;;;25.07;18.20;;;4.70;99.90;;;;;;4958124;28;20241;-77
2021/11/23 04:09:00;;;;;;;23.53;18.13;;;4.60;99.90;;;;;;4972279;28;20218;-71
2021/11/23 04:11:27;;;;;;;23.13;17.30;;;4.80;99.90;;;;;;4971213;28;20760;-72
2021/11/23 04:13:54;;;;;;;28.60;17.10;;;4.90;99.90;;;;;;4972189;28;20213;-73
2021/11/23 04:16:23;;;;;;;26.70;19.20;;;4.90;99.90;;;;;;4971584;28;20209;-71
2021/11/23 04:18:50;;;;;;;22.17;16.87;;;4.90;99.90;;;;;;4972303;28;20589;-71
2021/11/23 04:21:19;;;;;;;27.60;18.63;;;5.00;99.90;;;;;;4971015;28;20213;-72
2021/11/23 04:23:47;;;;;;;22.77;16.87;;;4.90;99.90;;;;;;4972030;28;20217;-72
2021/11/23 04:26:14;;;;;;;21.50;16.70;;;4.90;99.90;;;;;;4971286;28;20268;-72
2021/11/23 04:28:41;;;;;;;26.90;16.83;;;5.00;99.90;;;;;;4971638;28;20619;-74
2021/11/23 04:31:08;;;;;;;19.03;15.13;;;4.90;99.90;;;;;;4972094;28;20260;-73
2021/11/23 04:33:35;;;;;;;24.17;17.27;;;5.00;99.90;;;;;;4971525;28;20216;-70
2021/11/23 04:36:03;;;;;;;20.50;14.47;;;5.10;99.90;;;;;;4971846;28;20292;-73
2021/11/23 04:38:31;;;;;;;26.67;16.43;;;5.10;99.90;;;;;;4971304;28;20266;-72
2021/11/23 04:40:58;;;;;;;19.00;15.47;;;5.10;99.90;;;;;;4979960;28;20212;-72
2021/11/23 04:43:25;;;;;;;23.93;15.87;;;5.20;99.90;;;;;;4976058;28;20205;-78
2021/11/23 04:45:52;;;;;;;20.47;16.10;;;5.20;99.90;;;;;;4969945;28;20290;-78
2021/11/23 04:48:19;;;;;;;21.70;15.63;;;5.30;99.90;;;;;;4970983;28;20241;-72
2021/11/23 04:50:47;;;;;;;24.83;15.83;;;5.20;99.90;;;;;;4970805;28;20209;-76
2021/11/23 04:53:14;;;;;;;18.63;14.40;;;5.20;99.90;;;;;;4970875;28;20261;-72
2021/11/23 04:55:43;;;;;;;22.80;15.83;;;5.20;99.90;;;;;;4971155;28;20739;-72
2021/11/23 04:58:12;;;;;;;26.60;17.27;;;5.30;99.90;;;;;;4971410;28;20209;-72
2021/11/23 05:00:39;;;;;;;23.30;17.27;;;5.40;99.90;;;;;;4971607;28;20205;-72
2021/11/23 05:03:06;;;;;;;23.23;14.80;;;5.40;99.90;;;;;;4974218;28;20209;-72
2021/11/23 05:05:34;;;;;;;32.10;17.77;;;5.40;99.90;;;;;;4974482;28;20267;-72
2021/11/23 05:08:01;;;;;;;24.30;17.13;;;5.40;99.90;;;;;;4975139;28;20241;-72
2021/11/23 05:10:28;;;;;;;25.33;16.17;;;5.30;99.90;;;;;;4968518;28;20241;-75
2021/11/23 05:12:57;;;;;;;23.17;15.93;;;5.30;99.90;;;;;;4974524;28;20221;-74
2021/11/23 05:15:24;;;;;;;26.40;18.63;;;5.30;99.90;;;;;;4974622;28;20214;-74
2021/11/23 05:17:51;;;;;;;24.73;17.20;;;5.40;99.90;;;;;;4974629;28;20264;-74
2021/11/23 05:20:18;;;;;;;23.73;17.47;;;5.50;99.90;;;;;;4974373;28;20739;-73
2021/11/23 05:22:45;;;;;;;26.60;17.97;;;5.40;99.90;;;;;;4974829;28;20218;-73
2021/11/23 05:25:13;;;;;;;24.60;16.73;;;5.40;99.90;;;;;;4974382;28;20206;-72
2021/11/23 05:27:41;;;;;;;28.90;19.63;;;5.40;99.90;;;;;;4975119;28;20229;-72
2021/11/23 05:30:11;;;;;;;28.50;16.47;;;5.40;99.90;;;;;;4975057;28;20240;-77
2021/11/23 05:32:39;;;;;;;29.07;19.50;;;5.30;99.90;;;;;;4975277;28;20213;-79
2021/11/23 05:35:06;;;;;;;31.70;18.37;;;5.30;99.90;;;;;;4973746;28;20588;-72
2021/11/23 05:37:34;;;;;;;27.90;17.57;;;5.20;99.90;;;;;;4974237;28;20210;-73
2021/11/23 05:40:03;;;;;;;33.53;20.33;;;5.20;99.90;;;;;;4974154;28;20704;-75
2021/11/23 05:42:30;;;;;;;31.20;19.47;;;5.00;99.90;;;;;;4974130;28;20210;-73
2021/11/23 05:44:57;;;;;;;37.27;21.33;;;5.10;99.90;;;;;;4974483;28;20217;-73
2021/11/23 05:47:26;;;;;;;32.87;17.67;;;5.00;99.90;;;;;;4973351;28;20299;-74
2021/11/23 05:49:53;;;;;;;36.17;19.53;;;5.00;99.90;;;;;;4974430;28;20482;-75
2021/11/23 05:52:20;;;;;;;29.10;20.03;;;4.90;99.90;;;;;;4973779;28;20213;-77
2021/11/23 05:54:49;;;;;;;39.37;18.47;;;4.90;99.90;;;;;;4973830;28;20225;-78
2021/11/23 05:57:16;;;;;;;38.17;18.67;;;4.80;99.90;;;;;;4973736;28;20241;-78
2021/11/23 05:59:43;;;;;;;27.63;19.10;;;4.70;99.90;;;;;;4974008;28;20245;-77
2021/11/23 06:02:10;;;;;;;31.50;18.30;;;4.80;99.90;;;;;;4973611;28;20213;-76
2021/11/23 06:04:39;;;;;;;33.47;21.80;;;5.00;99.90;;;;;;4973907;28;20207;-80
2021/11/23 06:07:06;;;;;;;47.30;22.60;;;5.20;99.90;;;;;;4972829;28;20238;-80
2021/11/23 06:09:33;;;;;;;34.93;20.90;;;5.20;99.90;;;;;;4974025;28;20214;-80
2021/11/23 06:12:00;;;;;;;43.50;21.73;;;4.80;99.90;;;;;;4974147;28;20796;-82
2021/11/23 06:14:27;;;;;;;33.13;19.77;;;4.70;99.90;;;;;;4972738;28;20213;-81
2021/11/23 06:16:55;;;;;;;37.60;20.50;;;4.80;99.90;;;;;;4973906;28;20281;-81
2021/11/23 06:19:22;;;;;;;32.03;22.00;;;5.30;99.90;;;;;;4973992;28;20220;-81
2021/11/23 06:21:50;;;;;;;32.80;20.83;;;5.30;99.90;;;;;;4973905;28;20260;-77
2021/11/23 06:24:17;;;;;;;31.37;21.60;;;5.30;99.90;;;;;;4973336;28;20666;-79
2021/11/23 06:26:44;;;;;;;35.77;20.60;;;5.30;99.90;;;;;;4973679;28;20213;-73
2021/11/23 06:29:11;;;;;;;39.87;22.93;;;5.20;99.90;;;;;;4973197;28;20233;-73
2021/11/23 06:31:38;;;;;;;34.20;20.07;;;5.30;99.90;;;;;;4972283;28;20206;-74
2021/11/23 06:34:07;;;;;;;35.30;20.90;;;5.30;99.90;;;;;;4973813;28;20213;-74
2021/11/23 06:36:35;;;;;;;36.53;21.27;;;5.50;99.90;;;;;;4973001;28;20260;-74
2021/11/23 06:39:05;;;;;;;33.87;20.23;;;5.30;99.90;;;;;;4973779;28;20213;-79
2021/11/23 06:41:32;;;;;;;32.70;21.97;;;5.30;99.90;;;;;;4973390;28;20296;-74
2021/11/23 06:44:02;;;;;;;38.37;22.93;;;5.50;99.90;;;;;;4973362;28;20210;-74
2021/11/23 06:46:30;;;;;;;34.97;21.10;;;5.40;99.90;;;;;;4972988;28;20241;-73
2021/11/23 06:48:58;;;;;;;42.03;20.70;;;5.30;99.90;;;;;;4972924;28;20284;-73
2021/11/23 06:51:25;;;;;;;57.77;20.70;;;5.30;99.90;;;;;;4973099;28;20213;-76
2021/11/23 06:53:52;;;;;;;32.60;18.50;;;5.10;99.90;;;;;;4973331;28;20213;-74
2021/11/23 06:56:21;;;;;;;30.17;18.00;;;5.00;99.90;;;;;;4972980;28;20297;-74
2021/11/23 06:58:49;;;;;;;39.40;19.20;;;5.10;99.90;;;;;;4973234;28;20209;-77
2021/11/23 07:01:16;;;;;;;29.47;16.77;;;5.10;99.90;;;;;;4972612;28;20268;-77
2021/11/23 07:03:43;;;;;;;37.70;20.10;;;5.00;99.90;;;;;;4973109;28;20749;-74
2021/11/23 07:06:10;;;;;;;35.63;19.33;;;5.10;99.90;;;;;;4973102;28;20636;-74
2021/11/23 07:08:37;;;;;;;29.37;16.43;;;5.00;99.90;;;;;;4973173;28;20783;-73
2021/11/23 07:11:06;;;;;;;31.57;19.30;;;5.10;99.90;;;;;;4972769;28;20272;-73
2021/11/23 07:13:34;;;;;;;34.23;18.83;;;5.10;99.90;;;;;;4972562;28;20292;-82
2021/11/23 07:16:02;;;;;;;34.93;19.43;;;5.20;99.90;;;;;;4972628;28;20213;-78
2021/11/23 07:18:29;;;;;;;32.63;18.47;;;5.20;99.90;;;;;;4972119;28;20209;-75
2021/11/23 07:20:56;;;;;;;37.87;19.43;;;5.00;99.90;;;;;;4973101;28;20209;-70
2021/11/23 07:23:23;;;;;;;49.67;19.30;;;5.10;99.90;;;;;;4972280;28;20206;-75
2021/11/23 07:25:50;;;;;;;49.40;19.33;;;5.00;99.90;;;;;;4972509;28;20741;-74
2021/11/23 07:28:17;;;;;;;28.37;18.07;;;4.80;99.90;;;;;;4971808;28;20288;-74
2021/11/23 07:30:46;;;;;;;38.10;17.97;;;4.90;99.90;;;;;;4972716;28;20261;-73
2021/11/23 07:33:14;;;;;;;26.60;18.67;;;4.80;99.90;;;;;;4972677;28;20213;-74
2021/11/23 07:35:41;;;;;;;32.10;18.27;;;4.90;1.00;;;;;;4985214;28;20662;-74
2021/11/23 07:38:08;;;;;;;29.67;17.57;;;4.90;1.00;;;;;;4972760;28;20217;-74
2021/11/23 07:40:35;;;;;;;26.20;14.90;;;4.80;1.00;;;;;;4972041;28;20213;-73
2021/11/23 07:43:02;;;;;;;36.90;23.80;;;4.80;1.00;;;;;;4972426;28;20221;-73
2021/11/23 07:45:29;;;;;;;33.60;17.17;;;4.90;1.00;;;;;;4971719;28;20264;-73
2021/11/23 07:47:57;;;;;;;30.83;19.33;;;4.70;1.00;;;;;;4972286;28;20296;-73
2021/11/23 07:50:24;;;;;;;44.07;28.73;;;4.70;1.00;;;;;;4971504;28;20213;-72
2021/11/23 07:52:51;;;;;;;35.53;19.13;;;4.80;1.00;;;;;;4972894;28;20260;-83
2021/11/23 07:55:18;;;;;;;35.30;23.10;;;4.80;1.00;;;;;;4971788;28;20210;-76
2021/11/23 07:57:45;;;;;;;34.07;19.57;;;4.90;1.00;;;;;;4972279;28;20631;-77
2021/11/23 08:00:13;;;;;;;25.10;14.77;;;4.70;1.00;;;;;;4970271;28;20202;-74
2021/11/23 08:02:40;;;;;;;24.67;15.20;;;4.70;1.00;;;;;;4971831;28;20280;-75
2021/11/23 08:05:09;;;;;;;28.07;16.20;;;4.60;1.00;;;;;;4972525;28;20205;-76
2021/11/23 08:07:36;;;;;;;28.77;16.20;;;4.70;1.00;;;;;;4971396;28;20594;-77
2021/11/23 08:10:04;;;;;;;36.90;15.57;;;4.80;99.90;;;;;;4971908;28;20597;-75
2021/11/23 08:12:31;;;;;;;23.47;14.43;;;4.70;99.90;;;;;;4971247;28;20221;-79
2021/11/23 08:14:58;;;;;;;66.50;36.97;;;4.80;1.00;;;;;;4971548;28;20669;-79
2021/11/23 08:17:25;;;;;;;55.77;29.97;;;4.60;99.90;;;;;;4970460;28;20209;-75
2021/11/23 08:19:52;;;;;;;35.93;22.47;;;4.80;1.00;;;;;;4971340;28;20256;-73
2021/11/23 08:22:20;;;;;;;37.73;22.70;;;4.90;99.90;;;;;;4970949;28;20665;-76
2021/11/23 08:24:47;;;;;;;32.77;14.53;;;4.80;99.90;;;;;;4971669;28;20241;-73
2021/11/23 08:27:14;;;;;;;28.00;14.27;;;4.90;99.90;;;;;;4978380;28;20213;-74
2021/11/23 08:29:41;;;;;;;60.87;31.57;;;4.90;99.90;;;;;;4976385;28;20284;-74
2021/11/23 08:32:10;;;;;;;32.30;21.37;;;4.80;99.90;;;;;;4971409;28;21349;-74
2021/11/23 08:34:37;;;;;;;22.27;13.87;;;4.90;99.90;;;;;;4971592;28;20213;-73
2021/11/23 08:37:04;;;;;;;24.57;14.00;;;4.60;99.90;;;;;;4971212;28;20284;-76
2021/11/23 08:39:32;;;;;;;21.30;12.83;;;4.50;99.90;;;;;;4971107;28;20681;-75
2021/11/23 08:41:59;;;;;;;22.13;11.63;;;4.60;99.90;;;;;;4971353;28;20225;-75
2021/11/23 08:44:26;;;;;;;21.20;11.60;;;4.40;99.90;;;;;;4971111;28;20213;-75
2021/11/23 08:46:53;;;;;;;16.33;11.10;;;4.70;99.90;;;;;;4970472;28;20264;-76
2021/11/23 08:49:20;;;;;;;16.73;10.67;;;4.90;99.90;;;;;;4970095;28;20775;-75
2021/11/23 08:51:48;;;;;;;17.00;9.90;;;5.00;99.90;;;;;;4971207;28;20209;-78
2021/11/23 08:54:15;;;;;;;18.30;10.57;;;4.80;99.90;;;;;;4971318;28;20212;-75
2021/11/23 08:56:51;;;;;;;16.87;11.30;;;4.70;99.90;;;;;;4967364;28;20210;-77
2021/11/23 08:59:18;;;;;;;15.83;10.33;;;4.60;99.90;;;;;;4971305;28;20300;-76
2021/11/23 09:01:47;;;;;;;17.13;11.77;;;4.90;99.90;;;;;;4971076;28;20732;-80
2021/11/23 09:04:14;;;;;;;17.10;10.73;;;5.00;99.90;;;;;;4969971;28;20205;-77
2021/11/23 09:06:42;;;;;;;18.57;10.20;;;4.80;99.90;;;;;;4970833;28;20209;-75
2021/11/23 09:09:09;;;;;;;16.00;10.80;;;4.60;99.90;;;;;;4971252;28;20241;-76
2021/11/23 09:11:37;;;;;;;17.80;11.53;;;4.50;99.90;;;;;;4970834;28;20205;-76
2021/11/23 09:14:08;;;;;;;18.47;11.77;;;5.00;99.90;;;;;;4971362;28;20292;-79
2021/11/23 09:16:35;;;;;;;17.20;12.33;;;5.40;99.90;;;;;;4969061;28;20237;-75
2021/11/23 09:19:03;;;;;;;20.83;11.37;;;5.00;99.90;;;;;;4970880;28;20209;-76
2021/11/23 09:21:30;;;;;;;14.63;10.13;;;5.10;99.90;;;;;;4970555;28;20272;-75
2021/11/23 09:23:57;;;;;;;16.73;10.90;;;5.10;99.90;;;;;;4970867;28;20748;-78
2021/11/23 09:26:25;;;;;;;13.50;10.40;;;4.90;99.90;;;;;;4969711;28;20632;-76
2021/11/23 09:28:52;;;;;;;13.37;9.63;;;5.10;99.90;;;;;;4970830;28;20272;-76
2021/11/23 09:31:21;;;;;;;16.57;11.27;;;5.40;99.90;;;;;;4969577;28;20214;-80
2021/11/23 09:33:48;;;;;;;17.63;12.40;;;5.80;99.90;;;;;;4970992;28;20747;-76
2021/11/23 09:36:15;;;;;;;19.90;11.53;;;5.30;99.90;;;;;;4970789;28;20209;-75
2021/11/23 09:38:42;;;;;;;16.27;10.43;;;5.80;99.90;;;;;;4970657;28;20639;-78
2021/11/23 09:41:10;;;;;;;14.63;10.73;;;6.10;99.90;;;;;;4970673;28;20206;-79
2021/11/23 09:43:39;;;;;;;21.40;12.33;;;6.30;99.90;;;;;;4970945;28;20212;-76
2021/11/23 09:46:08;;;;;;;16.33;11.17;;;6.20;99.90;;;;;;4971515;28;20206;-78
2021/11/23 09:48:40;;;;;;;14.77;10.50;;;6.40;99.90;;;;;;4970266;28;20579;-76
2021/11/23 09:51:13;;;;;;;17.13;10.93;;;6.40;99.90;;;;;;4974515;28;20733;-75
2021/11/23 09:53:40;;;;;;;16.53;11.60;;;6.10;99.90;;;;;;4974180;28;20591;-74
2021/11/23 09:56:07;;;;;;;17.00;12.07;;;6.10;99.90;;;;;;4974479;28;20296;-76
2021/11/23 09:58:34;;;;;;;18.00;11.17;;;6.40;99.90;;;;;;4973724;28;20256;-77
2021/11/23 10:01:05;;;;;;;18.80;12.13;;;6.60;99.90;;;;;;4974274;28;20213;-76
2021/11/23 10:03:33;;;;;;;17.27;11.73;;;6.70;99.90;;;;;;4973883;28;20440;-74
2021/11/23 10:06:10;;;;;;;19.50;11.93;;;6.60;99.90;;;;;;4974125;28;20296;-74
2021/11/23 10:08:40;;;;;;;17.03;11.47;;;6.50;99.90;;;;;;4974027;28;20311;-75
2021/11/23 10:11:07;;;;;;;17.03;11.33;;;6.80;99.90;;;;;;4974190;28;20241;-77
2021/11/23 10:13:44;;;;;;;20.67;12.50;;;6.40;99.90;;;;;;4973837;28;20578;-76
2021/11/23 10:16:11;;;;;;;19.50;12.93;;;6.50;99.90;;;;;;4974083;28;20289;-74
2021/11/23 10:18:39;;;;;;;21.17;14.00;;;6.70;99.90;;;;;;4974285;28;20916;-75
2021/11/23 10:21:11;;;;;;;23.37;13.90;;;6.60;99.90;;;;;;4974320;28;20237;-76
2021/11/23 10:23:41;;;;;;;17.00;12.63;;;6.80;99.90;;;;;;4974017;28;20271;-74
2021/11/23 10:26:13;;;;;;;17.23;10.93;;;6.90;99.90;;;;;;4974334;28;20284;-76
2021/11/23 10:28:41;;;;;;;18.63;12.93;;;7.30;99.90;;;;;;4974015;28;20225;-75
2021/11/23 10:31:08;;;;;;;19.00;12.33;;;7.40;99.90;;;;;;4974274;28;20216;-77
2021/11/23 10:33:37;;;;;;;14.23;9.83;;;7.60;99.90;;;;;;4973170;28;20229;-74
2021/11/23 10:36:06;;;;;;;15.20;10.53;;;7.50;99.90;;;;;;4973959;28;20260;-76
2021/11/23 10:38:36;;;;;;;13.50;12.10;;;7.70;99.90;;;;;;4972295;28;20699;-77
2021/11/23 10:41:07;;;;;;;15.27;10.80;;;7.90;99.90;;;;;;4973554;28;20234;-74
2021/11/23 10:43:38;;;;;;;16.70;11.37;;;8.30;99.90;;;;;;4973070;28;20206;-73
2021/11/23 10:46:12;;;;;;;18.37;10.40;;;8.30;99.90;;;;;;4973510;28;20214;-76
2021/11/23 10:48:40;;;;;;;14.93;11.33;;;7.90;99.90;;;;;;4973393;28;20596;-76
2021/11/23 10:51:10;;;;;;;16.17;11.80;;;8.30;99.90;;;;;;4974066;28;20258;-77
2021/11/23 10:53:42;;;;;;;16.00;11.20;;;8.00;99.90;;;;;;4973458;28;20217;-74
2021/11/23 10:56:11;;;;;;;18.07;11.53;;;8.40;99.90;;;;;;4973640;28;20288;-76
2021/11/23 10:58:40;;;;;;;18.53;12.57;;;8.40;99.90;;;;;;4973586;28;20723;-74
2021/11/23 11:01:10;;;;;;;14.77;11.50;;;8.40;99.90;;;;;;4959747;28;20206;-77
2021/11/23 11:03:38;;;;;;;15.60;12.43;;;8.30;99.90;;;;;;4972599;28;20220;-74
2021/11/23 11:06:06;;;;;;;15.90;12.37;;;7.90;99.90;;;;;;4977225;28;20673;-74
2021/11/23 11:08:36;;;;;;;15.57;12.10;;;8.10;99.90;;;;;;4972658;28;20264;-75
2021/11/23 11:11:06;;;;;;;16.43;13.07;;;8.00;99.90;;;;;;4972778;28;20212;-73
2021/11/23 11:13:35;;;;;;;13.83;11.23;;;8.20;99.90;;;;;;4971401;28;20239;-75
2021/11/23 11:16:04;;;;;;;15.20;12.43;;;8.40;99.90;;;;;;4970139;28;20213;-75
2021/11/23 11:18:31;;;;;;;17.73;12.30;;;8.50;99.90;;;;;;4972453;28;20220;-76
2021/11/23 11:21:00;;;;;;;17.03;12.70;;;8.40;99.90;;;;;;4971539;28;20206;-75
2021/11/23 11:23:29;;;;;;;16.73;12.67;;;8.50;99.90;;;;;;4970291;28;20256;-75
2021/11/23 11:28:57;;;;;;;15.87;13.23;;;8.30;99.90;;;;;;4945763;28;20217;-74
2021/11/23 11:31:43;;;;;;;14.73;11.80;;;8.50;99.90;;;;;;4971810;28;20700;-75
2021/11/23 11:34:18;;;;;;;16.77;12.17;;;8.70;99.90;;;;;;4969324;28;20642;-75
2021/11/23 11:36:47;;;;;;;18.50;13.10;;;8.50;99.90;;;;;;4972239;28;20206;-77
2021/11/23 11:40:03;;;;;;;17.43;13.77;;;8.60;99.90;;;;;;4971840;28;20209;-75
2021/11/23 11:42:55;;;;;;;17.27;12.70;;;8.70;99.90;;;;;;4967799;28;20213;-75
2021/11/23 11:45:26;;;;;;;18.43;13.73;;;8.80;99.90;;;;;;4971726;28;20213;-74
2021/11/23 11:47:56;;;;;;;19.73;13.20;;;8.80;99.90;;;;;;4972128;28;20284;-75
2021/11/23 11:50:26;;;;;;;18.53;14.13;;;9.30;99.90;;;;;;4971489;28;20237;-75
2021/11/23 11:53:14;;;;;;;18.80;13.33;;;8.90;99.90;;;;;;4972054;28;20198;-74
2021/11/23 11:55:51;;;;;;;17.93;12.67;;;8.80;99.90;;;;;;4972196;28;20227;-75
2021/11/23 11:58:44;;;;;;;16.67;12.53;;;8.80;99.90;;;;;;4971552;28;20237;-75
2021/11/23 12:01:37;;;;;;;17.70;12.70;;;8.50;99.90;;;;;;4913550;28;20247;-74
2021/11/23 12:04:11;;;;;;;17.60;13.73;;;8.50;99.90;;;;;;4958911;28;20210;-75
2021/11/23 12:07:10;;;;;;;15.77;12.37;;;9.00;99.90;;;;;;4967511;28;20602;-75
2021/11/23 12:09:41;;;;;;;15.63;11.97;;;9.20;99.90;;;;;;4971981;28;20229;-74
2021/11/23 12:12:43;;;;;;;19.60;13.43;;;9.40;99.90;;;;;;4971445;28;20210;-75
2021/11/23 12:15:18;;;;;;;20.00;13.27;;;9.60;99.90;;;;;;4959683;28;20212;-74
2021/11/23 12:18:07;;;;;;;21.03;12.70;;;9.80;99.90;;;;;;4971759;28;20626;-74
2021/11/23 12:20:47;;;;;;;15.37;12.80;;;9.40;99.90;;;;;;4970250;28;20589;-74
2021/11/23 12:23:20;;;;;;;19.33;13.40;;;9.30;99.90;;;;;;4970632;28;20216;-75
2021/11/23 12:25:56;;;;;;;19.07;13.00;;;9.40;99.90;;;;;;4972116;28;20215;-76
2021/11/23 12:28:24;;;;;;;16.43;12.10;;;9.50;99.90;;;;;;4971022;28;20652;-73
2021/11/23 12:30:52;;;;;;;15.20;10.67;;;9.60;99.90;;;;;;4971551;28;20233;-75
2021/11/23 12:33:21;;;;;;;14.50;11.83;;;9.70;99.90;;;;;;4970837;28;20264;-73
2021/11/23 12:35:49;;;;;;;14.90;9.93;;;9.80;99.90;;;;;;4970305;28;20233;-73
2021/11/23 12:38:28;;;;;;;14.30;11.00;;;9.80;99.90;;;;;;4968431;28;20245;-75
2021/11/23 12:40:57;;;;;;;15.90;11.00;;;9.80;99.90;;;;;;4971653;28;20220;-75
2021/11/23 12:43:35;;;;;;;18.40;12.10;;;9.80;99.90;;;;;;4971203;28;20264;-74
2021/11/23 12:46:10;;;;;;;12.13;9.47;;;10.10;99.90;;;;;;4971415;28;20215;-75
2021/11/23 12:48:39;;;;;;;14.03;9.90;;;10.20;99.90;;;;;;4971062;28;20272;-75
2021/11/23 12:51:22;;;;;;;13.67;9.63;;;10.30;99.90;;;;;;4971787;28;20237;-74